sensor_id;sensor_type;location;lat;lon;timestamp;P1;durP1;ratioP1;P2;durP2;ratioP2
76896;SDS011;65856;52.178;21.176;2024-02-21T00:01:17;8.50;;;3.40;;
76896;SDS011;65856;52.178;21.176;2024-02-21T00:03:43;11.10;;;3.30;;
76896;SDS011;65856;52.178;21.176;2024-02-21T00:06:08;9.80;;;3.40;;
76896;SDS011;65856;52.178;21.176;2024-02-21T00:08:34;11.70;;;3.60;;
76896;SDS011;65856;52.178;21.176;2024-02-21T00:10:59;11.80;;;3.70;;
76896;SDS011;65856;52.178;21.176;2024-02-21T00:13:25;12.60;;;3.00;;
76896;SDS011;65856;52.178;21.176;2024-02-21T00:15:50;12.70;;;3.20;;
76896;SDS011;65856;52.178;21.176;2024-02-21T00:18:15;11.10;;;3.50;;
76896;SDS011;65856;52.178;21.176;2024-02-21T00:20:41;12.30;;;3.30;;
76896;SDS011;65856;52.178;21.176;2024-02-21T00:23:06;10.90;;;3.50;;
76896;SDS011;65856;52.178;21.176;2024-02-21T00:25:31;10.70;;;3.50;;
76896;SDS011;65856;52.178;21.176;2024-02-21T00:27:57;10.70;;;3.30;;
76896;SDS011;65856;52.178;21.176;2024-02-21T00:30:22;9.70;;;3.30;;
76896;SDS011;65856;52.178;21.176;2024-02-21T00:32:48;11.90;;;3.30;;
76896;SDS011;65856;52.178;21.176;2024-02-21T00:35:14;11.30;;;3.50;;
76896;SDS011;65856;52.178;21.176;2024-02-21T00:37:40;9.20;;;3.60;;
76896;SDS011;65856;52.178;21.176;2024-02-21T00:40:05;13.10;;;3.80;;
76896;SDS011;65856;52.178;21.176;2024-02-21T00:42:31;12.90;;;3.40;;
76896;SDS011;65856;52.178;21.176;2024-02-21T00:44:57;10.90;;;3.60;;
76896;SDS011;65856;52.178;21.176;2024-02-21T00:47:22;13.20;;;3.60;;
76896;SDS011;65856;52.178;21.176;2024-02-21T00:49:47;11.00;;;3.40;;
76896;SDS011;65856;52.178;21.176;2024-02-21T00:52:13;11.10;;;3.50;;
76896;SDS011;65856;52.178;21.176;2024-02-21T00:54:38;8.70;;;3.50;;
76896;SDS011;65856;52.178;21.176;2024-02-21T00:57:04;10.80;;;3.30;;
76896;SDS011;65856;52.178;21.176;2024-02-21T00:59:29;10.70;;;3.60;;
76896;SDS011;65856;52.178;21.176;2024-02-21T01:01:55;11.50;;;3.40;;
76896;SDS011;65856;52.178;21.176;2024-02-21T01:04:20;11.00;;;4.00;;
76896;SDS011;65856;52.178;21.176;2024-02-21T01:06:46;11.90;;;3.30;;
76896;SDS011;65856;52.178;21.176;2024-02-21T01:09:11;13.70;;;3.90;;
76896;SDS011;65856;52.178;21.176;2024-02-21T01:11:37;11.60;;;3.40;;
76896;SDS011;65856;52.178;21.176;2024-02-21T01:14:02;11.30;;;4.10;;
76896;SDS011;65856;52.178;21.176;2024-02-21T01:16:28;14.60;;;3.90;;
76896;SDS011;65856;52.178;21.176;2024-02-21T01:18:53;10.80;;;3.50;;
76896;SDS011;65856;52.178;21.176;2024-02-21T01:21:18;10.70;;;3.30;;
76896;SDS011;65856;52.178;21.176;2024-02-21T01:23:44;12.60;;;3.50;;
76896;SDS011;65856;52.178;21.176;2024-02-21T01:26:09;10.60;;;4.00;;
76896;SDS011;65856;52.178;21.176;2024-02-21T01:28:38;11.00;;;3.70;;
76896;SDS011;65856;52.178;21.176;2024-02-21T01:31:03;11.40;;;3.70;;
76896;SDS011;65856;52.178;21.176;2024-02-21T01:33:29;9.70;;;3.30;;
76896;SDS011;65856;52.178;21.176;2024-02-21T01:36:03;8.60;;;3.70;;
76896;SDS011;65856;52.178;21.176;2024-02-21T01:38:29;13.10;;;4.20;;
76896;SDS011;65856;52.178;21.176;2024-02-21T01:40:55;12.00;;;3.90;;
76896;SDS011;65856;52.178;21.176;2024-02-21T01:43:21;10.20;;;3.30;;
76896;SDS011;65856;52.178;21.176;2024-02-21T01:45:49;12.50;;;4.10;;
76896;SDS011;65856;52.178;21.176;2024-02-21T01:48:17;12.00;;;3.60;;
76896;SDS011;65856;52.178;21.176;2024-02-21T01:50:44;10.00;;;3.60;;
76896;SDS011;65856;52.178;21.176;2024-02-21T01:53:17;9.10;;;3.60;;
76896;SDS011;65856;52.178;21.176;2024-02-21T01:55:45;11.70;;;4.60;;
76896;SDS011;65856;52.178;21.176;2024-02-21T01:58:14;11.90;;;3.90;;
76896;SDS011;65856;52.178;21.176;2024-02-21T02:00:44;10.40;;;3.60;;
76896;SDS011;65856;52.178;21.176;2024-02-21T02:03:11;9.60;;;3.70;;
76896;SDS011;65856;52.178;21.176;2024-02-21T02:05:45;11.50;;;4.00;;
76896;SDS011;65856;52.178;21.176;2024-02-21T02:08:15;10.60;;;4.00;;
76896;SDS011;65856;52.178;21.176;2024-02-21T02:10:41;10.50;;;4.10;;
76896;SDS011;65856;52.178;21.176;2024-02-21T02:13:07;11.90;;;4.10;;
76896;SDS011;65856;52.178;21.176;2024-02-21T02:18:05;11.70;;;4.10;;
76896;SDS011;65856;52.178;21.176;2024-02-21T02:20:30;11.40;;;4.10;;
76896;SDS011;65856;52.178;21.176;2024-02-21T02:22:57;9.80;;;4.10;;
76896;SDS011;65856;52.178;21.176;2024-02-21T02:25:28;12.40;;;4.70;;
76896;SDS011;65856;52.178;21.176;2024-02-21T02:27:53;12.70;;;4.10;;
76896;SDS011;65856;52.178;21.176;2024-02-21T02:30:19;9.90;;;3.90;;
76896;SDS011;65856;52.178;21.176;2024-02-21T02:32:45;11.30;;;4.70;;
76896;SDS011;65856;52.178;21.176;2024-02-21T02:35:14;12.00;;;4.50;;
76896;SDS011;65856;52.178;21.176;2024-02-21T02:37:39;12.60;;;4.60;;
76896;SDS011;65856;52.178;21.176;2024-02-21T02:40:08;12.30;;;4.50;;
76896;SDS011;65856;52.178;21.176;2024-02-21T02:42:33;13.30;;;4.50;;
76896;SDS011;65856;52.178;21.176;2024-02-21T02:44:59;9.40;;;4.30;;
76896;SDS011;65856;52.178;21.176;2024-02-21T02:47:24;11.40;;;4.60;;
76896;SDS011;65856;52.178;21.176;2024-02-21T02:49:49;9.20;;;4.60;;
76896;SDS011;65856;52.178;21.176;2024-02-21T02:52:17;11.90;;;4.80;;
76896;SDS011;65856;52.178;21.176;2024-02-21T02:54:43;12.20;;;5.50;;
76896;SDS011;65856;52.178;21.176;2024-02-21T02:57:09;13.00;;;5.00;;
76896;SDS011;65856;52.178;21.176;2024-02-21T02:59:35;14.80;;;4.90;;
76896;SDS011;65856;52.178;21.176;2024-02-21T03:02:00;12.80;;;4.90;;
76896;SDS011;65856;52.178;21.176;2024-02-21T03:04:26;12.80;;;4.70;;
76896;SDS011;65856;52.178;21.176;2024-02-21T03:06:51;10.00;;;4.60;;
76896;SDS011;65856;52.178;21.176;2024-02-21T03:09:16;12.40;;;4.80;;
76896;SDS011;65856;52.178;21.176;2024-02-21T03:11:42;13.00;;;5.10;;
76896;SDS011;65856;52.178;21.176;2024-02-21T03:14:09;12.50;;;5.30;;
76896;SDS011;65856;52.178;21.176;2024-02-21T03:16:35;10.10;;;4.70;;
76896;SDS011;65856;52.178;21.176;2024-02-21T03:19:01;12.30;;;5.50;;
76896;SDS011;65856;52.178;21.176;2024-02-21T03:21:26;13.10;;;5.50;;
76896;SDS011;65856;52.178;21.176;2024-02-21T03:23:52;14.70;;;5.70;;
76896;SDS011;65856;52.178;21.176;2024-02-21T03:26:17;12.60;;;5.40;;
76896;SDS011;65856;52.178;21.176;2024-02-21T03:28:44;11.20;;;5.20;;
76896;SDS011;65856;52.178;21.176;2024-02-21T03:31:12;16.90;;;6.30;;
76896;SDS011;65856;52.178;21.176;2024-02-21T03:33:40;15.10;;;6.00;;
76896;SDS011;65856;52.178;21.176;2024-02-21T03:36:13;14.30;;;5.50;;
76896;SDS011;65856;52.178;21.176;2024-02-21T03:38:39;10.80;;;5.50;;
76896;SDS011;65856;52.178;21.176;2024-02-21T03:41:05;15.00;;;6.00;;
76896;SDS011;65856;52.178;21.176;2024-02-21T03:43:30;14.70;;;6.50;;
76896;SDS011;65856;52.178;21.176;2024-02-21T03:45:55;15.00;;;5.50;;
76896;SDS011;65856;52.178;21.176;2024-02-21T03:48:21;10.60;;;5.10;;
76896;SDS011;65856;52.178;21.176;2024-02-21T03:50:46;10.50;;;5.40;;
76896;SDS011;65856;52.178;21.176;2024-02-21T03:53:12;14.70;;;5.70;;
76896;SDS011;65856;52.178;21.176;2024-02-21T03:55:37;9.60;;;5.40;;
76896;SDS011;65856;52.178;21.176;2024-02-21T03:58:03;9.30;;;4.90;;
76896;SDS011;65856;52.178;21.176;2024-02-21T04:00:28;15.60;;;6.00;;
76896;SDS011;65856;52.178;21.176;2024-02-21T04:02:54;10.70;;;5.20;;
76896;SDS011;65856;52.178;21.176;2024-02-21T04:05:21;13.10;;;5.00;;
76896;SDS011;65856;52.178;21.176;2024-02-21T04:07:46;12.50;;;5.70;;
76896;SDS011;65856;52.178;21.176;2024-02-21T04:10:12;9.60;;;4.90;;
76896;SDS011;65856;52.178;21.176;2024-02-21T04:12:37;10.20;;;4.70;;
76896;SDS011;65856;52.178;21.176;2024-02-21T04:15:04;11.60;;;5.30;;
76896;SDS011;65856;52.178;21.176;2024-02-21T04:17:30;9.10;;;5.10;;
76896;SDS011;65856;52.178;21.176;2024-02-21T04:20:04;11.20;;;5.80;;
76896;SDS011;65856;52.178;21.176;2024-02-21T04:22:36;11.00;;;4.60;;
76896;SDS011;65856;52.178;21.176;2024-02-21T04:25:01;9.60;;;4.30;;
76896;SDS011;65856;52.178;21.176;2024-02-21T04:27:26;8.50;;;4.30;;
76896;SDS011;65856;52.178;21.176;2024-02-21T04:29:53;9.60;;;4.80;;
76896;SDS011;65856;52.178;21.176;2024-02-21T04:32:18;11.10;;;5.00;;
76896;SDS011;65856;52.178;21.176;2024-02-21T04:34:44;9.90;;;5.10;;
76896;SDS011;65856;52.178;21.176;2024-02-21T04:37:09;11.00;;;5.20;;
76896;SDS011;65856;52.178;21.176;2024-02-21T04:39:35;11.00;;;5.10;;
76896;SDS011;65856;52.178;21.176;2024-02-21T04:42:00;10.50;;;4.90;;
76896;SDS011;65856;52.178;21.176;2024-02-21T04:44:26;9.80;;;5.00;;
76896;SDS011;65856;52.178;21.176;2024-02-21T04:46:51;13.00;;;5.40;;
76896;SDS011;65856;52.178;21.176;2024-02-21T04:49:17;10.10;;;4.90;;
76896;SDS011;65856;52.178;21.176;2024-02-21T04:51:42;10.90;;;5.50;;
76896;SDS011;65856;52.178;21.176;2024-02-21T04:54:08;10.30;;;5.00;;
76896;SDS011;65856;52.178;21.176;2024-02-21T04:56:34;9.40;;;5.00;;
76896;SDS011;65856;52.178;21.176;2024-02-21T04:58:59;11.60;;;5.40;;
76896;SDS011;65856;52.178;21.176;2024-02-21T05:01:25;13.50;;;6.00;;
76896;SDS011;65856;52.178;21.176;2024-02-21T05:03:50;14.70;;;6.80;;
76896;SDS011;65856;52.178;21.176;2024-02-21T05:06:15;14.40;;;6.90;;
76896;SDS011;65856;52.178;21.176;2024-02-21T05:08:41;12.30;;;6.30;;
76896;SDS011;65856;52.178;21.176;2024-02-21T05:11:06;13.90;;;6.50;;
76896;SDS011;65856;52.178;21.176;2024-02-21T05:13:32;11.60;;;6.20;;
76896;SDS011;65856;52.178;21.176;2024-02-21T05:15:57;15.40;;;6.90;;
76896;SDS011;65856;52.178;21.176;2024-02-21T05:18:26;9.60;;;5.80;;
76896;SDS011;65856;52.178;21.176;2024-02-21T05:20:52;12.30;;;7.00;;
76896;SDS011;65856;52.178;21.176;2024-02-21T05:23:17;11.70;;;6.00;;
76896;SDS011;65856;52.178;21.176;2024-02-21T05:25:43;14.00;;;6.00;;
76896;SDS011;65856;52.178;21.176;2024-02-21T05:28:08;9.70;;;5.70;;
76896;SDS011;65856;52.178;21.176;2024-02-21T05:30:34;13.80;;;6.50;;
76896;SDS011;65856;52.178;21.176;2024-02-21T05:33:03;14.80;;;5.90;;
76896;SDS011;65856;52.178;21.176;2024-02-21T05:35:32;14.70;;;5.90;;
76896;SDS011;65856;52.178;21.176;2024-02-21T05:37:57;12.90;;;5.70;;
76896;SDS011;65856;52.178;21.176;2024-02-21T05:40:24;18.30;;;6.60;;
76896;SDS011;65856;52.178;21.176;2024-02-21T05:42:50;15.00;;;6.50;;
76896;SDS011;65856;52.178;21.176;2024-02-21T05:45:17;21.50;;;6.60;;
76896;SDS011;65856;52.178;21.176;2024-02-21T05:47:43;16.00;;;6.50;;
76896;SDS011;65856;52.178;21.176;2024-02-21T05:50:09;15.90;;;6.60;;
76896;SDS011;65856;52.178;21.176;2024-02-21T05:52:35;16.80;;;6.70;;
76896;SDS011;65856;52.178;21.176;2024-02-21T05:55:01;12.30;;;5.80;;
76896;SDS011;65856;52.178;21.176;2024-02-21T05:57:26;13.30;;;5.30;;
76896;SDS011;65856;52.178;21.176;2024-02-21T05:59:52;11.30;;;5.80;;
76896;SDS011;65856;52.178;21.176;2024-02-21T06:02:17;12.90;;;5.50;;
76896;SDS011;65856;52.178;21.176;2024-02-21T06:04:42;14.10;;;5.40;;
76896;SDS011;65856;52.178;21.176;2024-02-21T06:07:09;15.10;;;6.40;;
76896;SDS011;65856;52.178;21.176;2024-02-21T06:09:34;95.90;;;48.60;;
76896;SDS011;65856;52.178;21.176;2024-02-21T06:12:00;78.60;;;39.60;;
76896;SDS011;65856;52.178;21.176;2024-02-21T06:14:25;30.10;;;15.10;;
76896;SDS011;65856;52.178;21.176;2024-02-21T06:16:51;13.90;;;8.20;;
76896;SDS011;65856;52.178;21.176;2024-02-21T06:19:16;19.10;;;6.90;;
76896;SDS011;65856;52.178;21.176;2024-02-21T06:21:42;14.90;;;6.40;;
76896;SDS011;65856;52.178;21.176;2024-02-21T06:24:07;13.90;;;6.10;;
76896;SDS011;65856;52.178;21.176;2024-02-21T06:26:33;13.10;;;6.40;;
76896;SDS011;65856;52.178;21.176;2024-02-21T06:28:58;14.40;;;6.80;;
76896;SDS011;65856;52.178;21.176;2024-02-21T06:31:25;17.60;;;8.50;;
76896;SDS011;65856;52.178;21.176;2024-02-21T06:33:50;20.20;;;9.80;;
76896;SDS011;65856;52.178;21.176;2024-02-21T06:36:16;19.40;;;11.20;;
76896;SDS011;65856;52.178;21.176;2024-02-21T06:38:42;21.10;;;9.30;;
76896;SDS011;65856;52.178;21.176;2024-02-21T06:41:15;15.40;;;9.00;;
76896;SDS011;65856;52.178;21.176;2024-02-21T06:43:41;16.50;;;8.50;;
76896;SDS011;65856;52.178;21.176;2024-02-21T06:46:06;19.70;;;9.30;;
76896;SDS011;65856;52.178;21.176;2024-02-21T06:48:32;24.90;;;11.60;;
76896;SDS011;65856;52.178;21.176;2024-02-21T06:50:57;38.60;;;20.10;;
76896;SDS011;65856;52.178;21.176;2024-02-21T06:53:22;38.20;;;16.90;;
76896;SDS011;65856;52.178;21.176;2024-02-21T06:55:48;43.60;;;21.00;;
76896;SDS011;65856;52.178;21.176;2024-02-21T06:58:13;34.30;;;15.30;;
76896;SDS011;65856;52.178;21.176;2024-02-21T07:00:42;16.50;;;7.40;;
76896;SDS011;65856;52.178;21.176;2024-02-21T07:03:08;15.20;;;7.20;;
76896;SDS011;65856;52.178;21.176;2024-02-21T07:05:33;13.00;;;7.00;;
76896;SDS011;65856;52.178;21.176;2024-02-21T07:07:59;17.00;;;7.80;;
76896;SDS011;65856;52.178;21.176;2024-02-21T07:10:24;14.00;;;7.60;;
76896;SDS011;65856;52.178;21.176;2024-02-21T07:12:50;13.00;;;6.50;;
76896;SDS011;65856;52.178;21.176;2024-02-21T07:15:17;15.60;;;6.50;;
76896;SDS011;65856;52.178;21.176;2024-02-21T07:17:42;20.20;;;7.90;;
76896;SDS011;65856;52.178;21.176;2024-02-21T07:20:08;17.50;;;7.80;;
76896;SDS011;65856;52.178;21.176;2024-02-21T07:22:34;16.10;;;7.60;;
76896;SDS011;65856;52.178;21.176;2024-02-21T07:24:59;15.00;;;7.80;;
76896;SDS011;65856;52.178;21.176;2024-02-21T07:27:24;17.50;;;8.70;;
76896;SDS011;65856;52.178;21.176;2024-02-21T07:29:53;17.30;;;8.40;;
76896;SDS011;65856;52.178;21.176;2024-02-21T07:32:19;19.10;;;8.20;;
76896;SDS011;65856;52.178;21.176;2024-02-21T07:34:44;19.50;;;8.30;;
76896;SDS011;65856;52.178;21.176;2024-02-21T07:37:10;20.90;;;8.40;;
76896;SDS011;65856;52.178;21.176;2024-02-21T07:39:36;20.50;;;8.70;;
76896;SDS011;65856;52.178;21.176;2024-02-21T07:42:02;21.40;;;8.70;;
76896;SDS011;65856;52.178;21.176;2024-02-21T07:44:28;20.40;;;9.10;;
76896;SDS011;65856;52.178;21.176;2024-02-21T07:46:53;20.50;;;9.70;;
76896;SDS011;65856;52.178;21.176;2024-02-21T07:49:19;18.20;;;8.90;;
76896;SDS011;65856;52.178;21.176;2024-02-21T07:51:44;17.40;;;9.50;;
76896;SDS011;65856;52.178;21.176;2024-02-21T07:54:10;18.50;;;9.70;;
76896;SDS011;65856;52.178;21.176;2024-02-21T07:56:35;19.60;;;9.80;;
76896;SDS011;65856;52.178;21.176;2024-02-21T07:59:00;22.90;;;10.40;;
76896;SDS011;65856;52.178;21.176;2024-02-21T08:01:26;25.20;;;11.50;;
76896;SDS011;65856;52.178;21.176;2024-02-21T08:03:51;24.10;;;10.60;;
76896;SDS011;65856;52.178;21.176;2024-02-21T08:06:17;23.50;;;10.50;;
76896;SDS011;65856;52.178;21.176;2024-02-21T08:08:42;22.40;;;9.00;;
76896;SDS011;65856;52.178;21.176;2024-02-21T08:11:07;22.20;;;9.90;;
76896;SDS011;65856;52.178;21.176;2024-02-21T08:13:33;25.60;;;9.80;;
76896;SDS011;65856;52.178;21.176;2024-02-21T08:15:58;21.20;;;10.30;;
76896;SDS011;65856;52.178;21.176;2024-02-21T08:18:24;20.00;;;9.20;;
76896;SDS011;65856;52.178;21.176;2024-02-21T08:20:49;25.80;;;10.20;;
76896;SDS011;65856;52.178;21.176;2024-02-21T08:23:18;31.80;;;13.60;;
76896;SDS011;65856;52.178;21.176;2024-02-21T08:25:44;38.40;;;13.40;;
76896;SDS011;65856;52.178;21.176;2024-02-21T08:28:10;30.40;;;11.60;;
76896;SDS011;65856;52.178;21.176;2024-02-21T08:30:35;27.00;;;11.20;;
76896;SDS011;65856;52.178;21.176;2024-02-21T08:33:00;28.30;;;12.50;;
76896;SDS011;65856;52.178;21.176;2024-02-21T08:35:26;20.20;;;9.80;;
76896;SDS011;65856;52.178;21.176;2024-02-21T08:37:51;25.20;;;11.00;;
76896;SDS011;65856;52.178;21.176;2024-02-21T08:40:17;24.40;;;9.90;;
76896;SDS011;65856;52.178;21.176;2024-02-21T08:42:46;28.40;;;9.50;;
76896;SDS011;65856;52.178;21.176;2024-02-21T08:45:13;23.30;;;9.60;;
76896;SDS011;65856;52.178;21.176;2024-02-21T08:47:41;24.70;;;9.80;;
76896;SDS011;65856;52.178;21.176;2024-02-21T08:50:08;25.20;;;10.10;;
76896;SDS011;65856;52.178;21.176;2024-02-21T08:52:36;19.40;;;8.40;;
76896;SDS011;65856;52.178;21.176;2024-02-21T08:55:02;22.20;;;9.70;;
76896;SDS011;65856;52.178;21.176;2024-02-21T08:57:28;20.60;;;9.40;;
76896;SDS011;65856;52.178;21.176;2024-02-21T08:59:53;21.20;;;9.20;;
76896;SDS011;65856;52.178;21.176;2024-02-21T09:02:19;24.90;;;9.70;;
76896;SDS011;65856;52.178;21.176;2024-02-21T09:04:44;23.20;;;9.60;;
76896;SDS011;65856;52.178;21.176;2024-02-21T09:07:10;25.70;;;9.10;;
76896;SDS011;65856;52.178;21.176;2024-02-21T09:09:36;19.10;;;8.80;;
76896;SDS011;65856;52.178;21.176;2024-02-21T09:12:05;24.10;;;9.60;;
76896;SDS011;65856;52.178;21.176;2024-02-21T09:14:32;20.30;;;9.40;;
76896;SDS011;65856;52.178;21.176;2024-02-21T09:16:58;21.60;;;9.40;;
76896;SDS011;65856;52.178;21.176;2024-02-21T09:19:23;22.00;;;9.10;;
76896;SDS011;65856;52.178;21.176;2024-02-21T09:21:49;23.90;;;9.30;;
76896;SDS011;65856;52.178;21.176;2024-02-21T09:24:14;23.30;;;8.40;;
76896;SDS011;65856;52.178;21.176;2024-02-21T09:26:40;20.20;;;9.40;;
76896;SDS011;65856;52.178;21.176;2024-02-21T09:29:05;20.70;;;8.80;;
76896;SDS011;65856;52.178;21.176;2024-02-21T09:31:31;23.90;;;8.40;;
76896;SDS011;65856;52.178;21.176;2024-02-21T09:33:57;17.90;;;7.90;;
76896;SDS011;65856;52.178;21.176;2024-02-21T09:36:22;23.40;;;8.10;;
76896;SDS011;65856;52.178;21.176;2024-02-21T09:38:48;20.70;;;7.80;;
76896;SDS011;65856;52.178;21.176;2024-02-21T09:41:17;24.60;;;8.60;;
76896;SDS011;65856;52.178;21.176;2024-02-21T09:43:44;19.90;;;8.50;;
76896;SDS011;65856;52.178;21.176;2024-02-21T09:46:18;20.20;;;7.90;;
76896;SDS011;65856;52.178;21.176;2024-02-21T09:49:08;17.20;;;8.40;;
76896;SDS011;65856;52.178;21.176;2024-02-21T09:51:36;18.80;;;7.00;;
76896;SDS011;65856;52.178;21.176;2024-02-21T09:54:03;23.20;;;7.80;;
76896;SDS011;65856;52.178;21.176;2024-02-21T09:56:28;18.20;;;7.10;;
76896;SDS011;65856;52.178;21.176;2024-02-21T09:58:54;17.90;;;6.50;;
76896;SDS011;65856;52.178;21.176;2024-02-21T10:01:20;17.30;;;7.10;;
76896;SDS011;65856;52.178;21.176;2024-02-21T10:03:45;19.80;;;7.50;;
76896;SDS011;65856;52.178;21.176;2024-02-21T10:06:11;17.00;;;6.90;;
76896;SDS011;65856;52.178;21.176;2024-02-21T10:08:36;19.10;;;6.10;;
76896;SDS011;65856;52.178;21.176;2024-02-21T10:11:02;16.40;;;6.30;;
76896;SDS011;65856;52.178;21.176;2024-02-21T10:13:29;18.70;;;6.70;;
76896;SDS011;65856;52.178;21.176;2024-02-21T10:16:05;15.80;;;6.50;;
76896;SDS011;65856;52.178;21.176;2024-02-21T10:18:32;14.70;;;5.80;;
76896;SDS011;65856;52.178;21.176;2024-02-21T10:23:27;17.60;;;6.40;;
76896;SDS011;65856;52.178;21.176;2024-02-21T10:25:52;17.00;;;6.50;;
76896;SDS011;65856;52.178;21.176;2024-02-21T10:28:18;16.50;;;6.20;;
76896;SDS011;65856;52.178;21.176;2024-02-21T10:30:51;19.00;;;6.60;;
76896;SDS011;65856;52.178;21.176;2024-02-21T10:33:18;17.80;;;6.00;;
76896;SDS011;65856;52.178;21.176;2024-02-21T10:35:47;18.20;;;6.00;;
76896;SDS011;65856;52.178;21.176;2024-02-21T10:38:14;15.90;;;6.70;;
76896;SDS011;65856;52.178;21.176;2024-02-21T10:40:40;18.60;;;6.80;;
76896;SDS011;65856;52.178;21.176;2024-02-21T10:43:12;14.90;;;5.80;;
76896;SDS011;65856;52.178;21.176;2024-02-21T10:45:38;16.10;;;6.20;;
76896;SDS011;65856;52.178;21.176;2024-02-21T10:48:15;17.80;;;6.20;;
76896;SDS011;65856;52.178;21.176;2024-02-21T10:50:57;17.70;;;6.30;;
76896;SDS011;65856;52.178;21.176;2024-02-21T10:53:42;15.70;;;6.70;;
76896;SDS011;65856;52.178;21.176;2024-02-21T10:56:37;14.70;;;6.20;;
76896;SDS011;65856;52.178;21.176;2024-02-21T10:59:06;18.10;;;6.70;;
76896;SDS011;65856;52.178;21.176;2024-02-21T11:01:32;18.80;;;7.00;;
76896;SDS011;65856;52.178;21.176;2024-02-21T11:04:05;19.10;;;7.10;;
76896;SDS011;65856;52.178;21.176;2024-02-21T11:06:32;16.20;;;7.30;;
76896;SDS011;65856;52.178;21.176;2024-02-21T11:09:09;23.00;;;7.50;;
76896;SDS011;65856;52.178;21.176;2024-02-21T11:11:39;17.90;;;8.10;;
76896;SDS011;65856;52.178;21.176;2024-02-21T11:14:19;18.80;;;7.70;;
76896;SDS011;65856;52.178;21.176;2024-02-21T11:16:46;17.60;;;7.40;;
76896;SDS011;65856;52.178;21.176;2024-02-21T11:19:27;17.60;;;8.40;;
76896;SDS011;65856;52.178;21.176;2024-02-21T11:21:55;16.50;;;7.70;;
76896;SDS011;65856;52.178;21.176;2024-02-21T11:24:32;20.20;;;8.00;;
76896;SDS011;65856;52.178;21.176;2024-02-21T11:27:08;19.20;;;7.90;;
76896;SDS011;65856;52.178;21.176;2024-02-21T11:29:56;19.80;;;8.10;;
76896;SDS011;65856;52.178;21.176;2024-02-21T11:32:23;23.90;;;9.20;;
76896;SDS011;65856;52.178;21.176;2024-02-21T11:34:55;17.30;;;8.70;;
76896;SDS011;65856;52.178;21.176;2024-02-21T11:37:24;19.20;;;8.40;;
76896;SDS011;65856;52.178;21.176;2024-02-21T11:39:51;19.10;;;8.00;;
76896;SDS011;65856;52.178;21.176;2024-02-21T11:42:18;20.60;;;8.70;;
76896;SDS011;65856;52.178;21.176;2024-02-21T11:44:44;20.50;;;8.80;;
76896;SDS011;65856;52.178;21.176;2024-02-21T11:47:09;21.80;;;8.90;;
76896;SDS011;65856;52.178;21.176;2024-02-21T11:49:45;25.10;;;9.50;;
76896;SDS011;65856;52.178;21.176;2024-02-21T11:52:12;17.70;;;8.60;;
76896;SDS011;65856;52.178;21.176;2024-02-21T11:54:41;24.00;;;9.20;;
76896;SDS011;65856;52.178;21.176;2024-02-21T11:57:06;21.00;;;9.90;;
76896;SDS011;65856;52.178;21.176;2024-02-21T11:59:32;22.50;;;10.10;;
76896;SDS011;65856;52.178;21.176;2024-02-21T12:01:59;21.10;;;9.00;;
76896;SDS011;65856;52.178;21.176;2024-02-21T12:04:25;23.70;;;9.90;;
76896;SDS011;65856;52.178;21.176;2024-02-21T12:06:52;22.80;;;9.80;;
76896;SDS011;65856;52.178;21.176;2024-02-21T12:09:19;23.90;;;9.40;;
76896;SDS011;65856;52.178;21.176;2024-02-21T12:11:45;20.30;;;9.80;;
76896;SDS011;65856;52.178;21.176;2024-02-21T12:14:16;26.00;;;9.60;;
76896;SDS011;65856;52.178;21.176;2024-02-21T12:16:42;22.50;;;9.90;;
76896;SDS011;65856;52.178;21.176;2024-02-21T12:19:09;22.70;;;10.10;;
76896;SDS011;65856;52.178;21.176;2024-02-21T12:21:35;22.50;;;9.60;;
76896;SDS011;65856;52.178;21.176;2024-02-21T12:26:39;21.50;;;9.30;;
76896;SDS011;65856;52.178;21.176;2024-02-21T12:29:05;24.40;;;10.10;;
76896;SDS011;65856;52.178;21.176;2024-02-21T12:31:31;20.10;;;9.50;;
76896;SDS011;65856;52.178;21.176;2024-02-21T12:33:56;23.00;;;10.50;;
76896;SDS011;65856;52.178;21.176;2024-02-21T12:36:22;23.80;;;9.50;;
76896;SDS011;65856;52.178;21.176;2024-02-21T12:38:47;23.30;;;10.40;;
76896;SDS011;65856;52.178;21.176;2024-02-21T12:41:14;19.50;;;9.80;;
76896;SDS011;65856;52.178;21.176;2024-02-21T12:43:40;19.00;;;9.70;;
76896;SDS011;65856;52.178;21.176;2024-02-21T12:46:06;20.20;;;10.50;;
76896;SDS011;65856;52.178;21.176;2024-02-21T12:48:33;17.30;;;10.30;;
76896;SDS011;65856;52.178;21.176;2024-02-21T12:50:59;22.30;;;10.10;;
76896;SDS011;65856;52.178;21.176;2024-02-21T12:53:25;23.60;;;10.20;;
76896;SDS011;65856;52.178;21.176;2024-02-21T12:55:50;23.70;;;10.50;;
76896;SDS011;65856;52.178;21.176;2024-02-21T12:58:16;23.40;;;10.70;;
76896;SDS011;65856;52.178;21.176;2024-02-21T13:00:42;18.50;;;10.20;;
76896;SDS011;65856;52.178;21.176;2024-02-21T13:03:08;18.50;;;10.50;;
76896;SDS011;65856;52.178;21.176;2024-02-21T13:05:37;22.00;;;10.10;;
76896;SDS011;65856;52.178;21.176;2024-02-21T13:08:05;22.90;;;10.30;;
76896;SDS011;65856;52.178;21.176;2024-02-21T13:10:31;19.30;;;10.00;;
76896;SDS011;65856;52.178;21.176;2024-02-21T13:12:58;24.60;;;10.50;;
76896;SDS011;65856;52.178;21.176;2024-02-21T13:15:24;24.70;;;11.30;;
76896;SDS011;65856;52.178;21.176;2024-02-21T13:17:49;20.90;;;10.10;;
76896;SDS011;65856;52.178;21.176;2024-02-21T13:20:15;20.50;;;9.60;;
76896;SDS011;65856;52.178;21.176;2024-02-21T13:22:40;20.00;;;10.50;;
76896;SDS011;65856;52.178;21.176;2024-02-21T13:25:06;19.30;;;11.00;;
76896;SDS011;65856;52.178;21.176;2024-02-21T13:27:33;20.10;;;10.40;;
76896;SDS011;65856;52.178;21.176;2024-02-21T13:29:58;24.70;;;11.00;;
76896;SDS011;65856;52.178;21.176;2024-02-21T13:32:26;20.70;;;10.00;;
76896;SDS011;65856;52.178;21.176;2024-02-21T13:34:52;23.60;;;10.60;;
76896;SDS011;65856;52.178;21.176;2024-02-21T13:37:17;25.40;;;11.00;;
76896;SDS011;65856;52.178;21.176;2024-02-21T13:39:43;19.10;;;9.70;;
76896;SDS011;65856;52.178;21.176;2024-02-21T13:42:09;19.50;;;10.00;;
76896;SDS011;65856;52.178;21.176;2024-02-21T13:44:34;22.20;;;10.10;;
76896;SDS011;65856;52.178;21.176;2024-02-21T13:47:01;21.80;;;9.90;;
76896;SDS011;65856;52.178;21.176;2024-02-21T13:49:27;20.80;;;10.10;;
76896;SDS011;65856;52.178;21.176;2024-02-21T13:51:53;19.00;;;9.30;;
76896;SDS011;65856;52.178;21.176;2024-02-21T13:54:19;23.20;;;10.10;;
76896;SDS011;65856;52.178;21.176;2024-02-21T13:56:45;21.10;;;10.60;;
76896;SDS011;65856;52.178;21.176;2024-02-21T13:59:12;22.20;;;10.50;;
76896;SDS011;65856;52.178;21.176;2024-02-21T14:01:39;21.70;;;11.00;;
76896;SDS011;65856;52.178;21.176;2024-02-21T14:04:04;25.70;;;10.40;;
76896;SDS011;65856;52.178;21.176;2024-02-21T14:06:30;22.60;;;10.30;;
76896;SDS011;65856;52.178;21.176;2024-02-21T14:08:55;21.70;;;10.00;;
76896;SDS011;65856;52.178;21.176;2024-02-21T14:11:21;18.00;;;8.80;;
76896;SDS011;65856;52.178;21.176;2024-02-21T14:13:46;19.20;;;9.10;;
76896;SDS011;65856;52.178;21.176;2024-02-21T14:16:11;19.50;;;9.30;;
76896;SDS011;65856;52.178;21.176;2024-02-21T14:18:39;24.70;;;9.70;;
76896;SDS011;65856;52.178;21.176;2024-02-21T14:21:07;22.60;;;10.70;;
76896;SDS011;65856;52.178;21.176;2024-02-21T14:23:36;17.90;;;8.90;;
76896;SDS011;65856;52.178;21.176;2024-02-21T14:26:02;21.50;;;10.20;;